Clearwater, KS

8:50 AM CST on February 12, 2016 (GMT -0600)
Dove Haven | | Change Station
CLOSE
Current Station
Personal Weather Station
Location: Clearwater, KS
Elevation: 1394 ft
Nearby Weather Stations

Elev 1394 ft 37.56 °N, 97.52 °W | Updated 41 seconds ago

Partly Cloudy
Partly Cloudy
31.3 °F
Feels Like 21 °F
N
13.0
Wind Variable Wind from NNE
Gusts 20.0 mph

Today
High -- | Low -- °F
--% Chance of Precip.
Yesterday
High -- | Low -- °F
Precip. -- in
Pressure 30.38 in
Visibility 7.0 miles
Clouds Mostly Cloudy 900 ft
Mostly Cloudy 25000 ft
Windchill 21 °F
Dew Point 28 °F
Humidity 89%
Rainfall 0.00 in
Snow Depth Not available.
7:23 AM 6:05 PM
Waxing Crescent, 21% visible
METAR KICT 121353Z 36011KT 7SM BKN009 BKN250 00/M03 A3034 RMK AO2 SLP285 T00001028
Pressure 30.38 in
Visibility 7.0 miles
Clouds Mostly Cloudy 900 ft
Mostly Cloudy 25000 ft
Windchill 21 °F
Dew Point 28 °F
Humidity 89%
Rainfall 0.00 in
Snow Depth Not available.
7:23 AM 6:05 PM
Waxing Crescent, 21% visible
METAR KICT 121353Z 36011KT 7SM BKN009 BKN250 00/M03 A3034 RMK AO2 SLP285 T00001028

10-Day Weather Forecast

Almanac

Astronomy

Feb. 12, 2016 Rise Set
Actual Time
Civil Twilight
Nautical Twilight
Astronomical Twilight
Moon
Length of Visible Light
Length of Day
Tomorrow will be .
, % of the Moon is Illuminated

Today's Extremes

State Highs State Lows

Community

WunderPhotos

Upload Photos

1,892,318 photos uploaded!

WunderBlog® & News

Nearby

Air Quality

  Air Quality AQ Index Pollutant
Not available.

Snow Depth

Station Depth Elevation

Earthquake Activity

City Distance Mag. Time & Date
Minimum magnitude displayed is 2.5.

Coastal Water Temperatures

Place Temperature

Stations

Nearby Weather Stations

Station Location Temp. Windchill Dew Point Humidity Wind Precip. Elev Updated Type
                   

Watches & Warnings

There are currently no watches in effect.